Time;durP1;ratioP1;P1;durP2;ratioP2;P2;SDS_P1;SDS_P2;PMS_P1;PMS_P2;Temp;Humidity;BMP_temperature;BMP_pressure;BME280_temperature;BME280_humidity;BME280_pressure;Samples;Min_cycle;Max_cycle;Signal;HPM_P1;HPM_P2
2022/05/19 00:02:26;;;;;;;;;1.40;1.40;;;;;;;;5189751;28;8793;-70
2022/05/19 00:04:56;;;;;;;;;7.60;7.60;;;;;;;;5205088;28;8777;-71
2022/05/19 00:07:28;;;;;;;;;2.20;2.20;;;;;;;;5176671;28;8865;-71
2022/05/19 00:10:17;;;;;;;;;1.00;1.00;;;;;;;;5184629;28;8803;-70
2022/05/19 00:12:48;;;;;;;;;3.40;3.40;;;;;;;;5166620;28;8799;-72
2022/05/19 00:15:37;;;;;;;;;2.60;2.60;;;;;;;;5187346;28;8781;-71
2022/05/19 00:18:09;;;;;;;;;2.00;2.00;;;;;;;;5204476;28;8785;-71
2022/05/19 00:20:40;;;;;;;;;2.00;2.00;;;;;;;;5204601;28;8809;-70
2022/05/19 00:23:11;;;;;;;;;5.20;5.20;;;;;;;;5202667;28;8916;-71
2022/05/19 00:25:42;;;;;;;;;4.25;4.25;;;;;;;;5168973;28;8983;-72
2022/05/19 00:28:13;;;;;;;;;2.20;2.20;;;;;;;;5184529;28;12179;-71
2022/05/19 00:30:44;;;;;;;;;3.00;3.00;;;;;;;;5188738;28;8807;-71
2022/05/19 00:33:15;;;;;;;;;7.25;7.25;;;;;;;;5170404;28;8980;-71
2022/05/19 00:36:09;;;;;;;;;3.00;3.00;;;;;;;;5200385;28;8819;-71
2022/05/19 00:38:40;;;;;;;;;2.40;2.40;;;;;;;;5163639;28;8835;-71
2022/05/19 00:41:12;;;;;;;;;20.80;20.80;;;;;;;;5187642;28;8969;-71
2022/05/19 00:44:04;;;;;;;;;1.00;1.00;;;;;;;;5187834;28;8767;-72
2022/05/19 00:46:55;;;;;;;;;0.40;0.40;;;;;;;;5170693;28;8854;-72
2022/05/19 00:49:31;;;;;;;;;6.60;6.60;;;;;;;;5187141;28;8825;-71
2022/05/19 00:52:08;;;;;;;;;7.60;7.60;;;;;;;;5170349;28;8771;-71
2022/05/19 00:54:51;;;;;;;;;2.60;2.60;;;;;;;;5153885;28;9149;-71
2022/05/19 00:57:24;;;;;;;;;23.20;23.20;;;;;;;;5187427;28;8803;-68
2022/05/19 01:00:01;;;;;;;;;3.00;3.00;;;;;;;;5158035;28;8813;-68
2022/05/19 01:02:38;;;;;;;;;2.00;2.00;;;;;;;;5190446;28;8777;-69
2022/05/19 01:05:12;;;;;;;;;1.00;1.00;;;;;;;;5167011;28;8833;-67
2022/05/19 01:08:08;;;;;;;;;5.20;5.20;;;;;;;;5207885;28;8832;-66
2022/05/19 01:10:40;;;;;;;;;2.60;2.60;;;;;;;;5190091;28;8947;-67
2022/05/19 01:13:12;;;;;;;;;4.40;4.40;;;;;;;;5190097;28;8799;-67
2022/05/19 01:16:03;;;;;;;;;9.80;9.80;;;;;;;;5192750;28;8806;-67
2022/05/19 01:18:52;;;;;;;;;2.00;2.00;;;;;;;;5199773;28;8919;-67
2022/05/19 01:21:41;;;;;;;;;0.80;0.80;;;;;;;;5187048;28;9537;-67
2022/05/19 01:24:35;;;;;;;;;2.00;2.00;;;;;;;;5187944;28;8938;-69
2022/05/19 01:27:06;;;;;;;;;1.00;1.00;;;;;;;;5186728;28;8849;-68
2022/05/19 01:29:55;;;;;;;;;0.80;0.80;;;;;;;;5187712;28;8803;-69
2022/05/19 01:32:27;;;;;;;;;1.20;1.20;;;;;;;;5153534;28;8792;-69
2022/05/19 01:34:59;;;;;;;;;1.80;1.60;;;;;;;;5169195;28;9561;-69
2022/05/19 01:37:30;;;;;;;;;1.60;1.60;;;;;;;;5201715;28;8823;-69
2022/05/19 01:40:16;;;;;;;;;2.00;2.00;;;;;;;;5185234;28;8869;-69
2022/05/19 01:43:19;;;;;;;;;1.80;1.80;;;;;;;;5195596;28;8788;-68
2022/05/19 01:45:59;;;;;;;;;6.00;6.00;;;;;;;;5159684;28;8801;-69
2022/05/19 01:48:58;;;;;;;;;4.00;4.00;;;;;;;;5206910;28;8781;-69
2022/05/19 01:51:33;;;;;;;;;0.00;0.00;;;;;;;;5207195;28;8888;-70
2022/05/19 01:54:13;;;;;;;;;3.20;3.20;;;;;;;;5172446;28;8940;-69
2022/05/19 01:56:53;;;;;;;;;2.00;2.00;;;;;;;;5178015;28;8807;-69
2022/05/19 01:59:29;;;;;;;;;10.80;10.80;;;;;;;;5187613;28;9675;-67
2022/05/19 02:02:04;;;;;;;;;9.00;9.00;;;;;;;;5179427;28;8827;-67
2022/05/19 02:04:44;;;;;;;;;75.40;52.80;;;;;;;;5185920;28;8798;-68
2022/05/19 02:07:16;;;;;;;;;13.60;12.60;;;;;;;;5168540;28;8876;-67
2022/05/19 02:09:50;;;;;;;;;60.00;47.60;;;;;;;;5201090;28;9526;-67
2022/05/19 02:12:22;;;;;;;;;51.40;43.60;;;;;;;;5200954;28;8759;-67
2022/05/19 02:15:14;;;;;;;;;54.20;43.60;;;;;;;;5185904;28;8886;-67
2022/05/19 02:17:46;;;;;;;;;34.60;34.20;;;;;;;;5185570;28;8863;-71
2022/05/19 02:20:20;;;;;;;;;41.80;39.20;;;;;;;;5169547;28;8798;-71
2022/05/19 02:22:51;;;;;;;;;43.80;40.40;;;;;;;;5204707;28;8775;-71
2022/05/19 02:25:34;;;;;;;;;12.60;12.20;;;;;;;;5197516;28;8876;-70
2022/05/19 02:28:11;;;;;;;;;11.20;11.20;;;;;;;;5190272;28;9537;-70
2022/05/19 02:30:43;;;;;;;;;11.00;11.00;;;;;;;;5205897;28;8782;-70
2022/05/19 02:33:14;;;;;;;;;2.00;2.00;;;;;;;;5172093;28;8763;-70
2022/05/19 02:35:46;;;;;;;;;2.40;2.40;;;;;;;;5188023;28;8998;-72
2022/05/19 02:38:18;;;;;;;;;0.20;0.20;;;;;;;;5188172;28;8985;-70
2022/05/19 02:40:49;;;;;;;;;1.00;1.00;;;;;;;;5192848;28;8841;-71
2022/05/19 02:43:21;;;;;;;;;9.40;8.60;;;;;;;;5184623;28;9514;-71
2022/05/19 02:46:10;;;;;;;;;0.80;0.80;;;;;;;;5168039;28;8809;-72
2022/05/19 02:48:41;;;;;;;;;1.00;1.00;;;;;;;;5196148;28;8813;-72
2022/05/19 02:51:12;;;;;;;;;0.00;0.00;;;;;;;;5184389;28;8790;-72
2022/05/19 02:53:43;;;;;;;;;0.00;0.00;;;;;;;;5197460;28;8899;-72
2022/05/19 02:56:14;;;;;;;;;1.00;1.00;;;;;;;;5185834;28;8797;-71
2022/05/19 02:58:46;;;;;;;;;27.20;27.20;;;;;;;;5185605;28;11403;-71
2022/05/19 03:01:17;;;;;;;;;2.40;2.40;;;;;;;;5204045;28;8781;-72
2022/05/19 03:03:48;;;;;;;;;0.00;0.00;;;;;;;;5187405;28;8835;-72
2022/05/19 03:06:19;;;;;;;;;2.00;2.00;;;;;;;;5171128;28;8824;-72
2022/05/19 03:08:50;;;;;;;;;2.00;2.00;;;;;;;;5205515;28;8801;-72
2022/05/19 03:11:21;;;;;;;;;0.00;0.00;;;;;;;;5187385;28;12376;-70
2022/05/19 03:13:52;;;;;;;;;7.60;7.60;;;;;;;;5199867;28;8799;-69
2022/05/19 03:16:42;;;;;;;;;23.40;23.20;;;;;;;;5197912;28;8806;-71
2022/05/19 03:19:14;;;;;;;;;13.00;13.00;;;;;;;;5195622;28;8947;-70
2022/05/19 03:21:45;;;;;;;;;0.00;0.00;;;;;;;;5197374;28;8946;-74
2022/05/19 03:24:17;;;;;;;;;0.00;0.00;;;;;;;;5181080;28;8894;-73
2022/05/19 03:26:48;;;;;;;;;0.00;0.00;;;;;;;;5160635;28;9630;-73
2022/05/19 03:29:37;;;;;;;;;0.00;0.00;;;;;;;;5168017;28;8803;-72
2022/05/19 03:32:08;;;;;;;;;5.25;5.25;;;;;;;;5181374;28;8810;-70
2022/05/19 03:34:39;;;;;;;;;1.00;1.00;;;;;;;;5165230;28;11429;-72
2022/05/19 03:37:10;;;;;;;;;3.40;3.40;;;;;;;;5165487;28;8843;-70
2022/05/19 03:39:41;;;;;;;;;0.60;0.60;;;;;;;;5198643;28;8784;-71
2022/05/19 03:42:12;;;;;;;;;1.40;1.40;;;;;;;;5182853;28;8795;-71
2022/05/19 03:44:43;;;;;;;;;1.00;1.00;;;;;;;;5181071;28;8811;-71
2022/05/19 03:47:14;;;;;;;;;3.20;3.20;;;;;;;;5164615;28;8887;-71
2022/05/19 03:50:03;;;;;;;;;3.00;3.00;;;;;;;;5182451;28;8775;-71
2022/05/19 03:52:38;;;;;;;;;4.40;4.40;;;;;;;;5178420;28;8851;-68
2022/05/19 03:55:13;;;;;;;;;22.00;20.60;;;;;;;;5165858;28;8905;-69
2022/05/19 03:57:44;;;;;;;;;6.00;3.80;;;;;;;;5175732;28;8877;-71
2022/05/19 04:00:15;;;;;;;;;6.00;4.00;;;;;;;;5162477;28;9532;-70
2022/05/19 04:02:46;;;;;;;;;18.40;18.20;;;;;;;;5191232;28;10127;-69
2022/05/19 04:05:17;;;;;;;;;1.00;1.00;;;;;;;;5187049;28;8825;-69
2022/05/19 04:07:48;;;;;;;;;3.00;3.00;;;;;;;;5195126;28;9614;-70
2022/05/19 04:10:19;;;;;;;;;2.20;2.20;;;;;;;;5158380;28;9511;-70
2022/05/19 04:12:50;;;;;;;;;1.00;1.00;;;;;;;;5191084;28;8770;-70
2022/05/19 04:15:22;;;;;;;;;9.60;9.20;;;;;;;;5189454;28;8924;-72
2022/05/19 04:17:53;;;;;;;;;1.00;1.00;;;;;;;;5169453;28;8795;-69
2022/05/19 04:20:43;;;;;;;;;0.40;0.40;;;;;;;;5170490;28;8905;-71
2022/05/19 04:23:14;;;;;;;;;33.40;24.00;;;;;;;;5164948;28;8793;-72
2022/05/19 04:25:46;;;;;;;;;17.60;16.20;;;;;;;;5206915;28;8769;-71
2022/05/19 04:28:17;;;;;;;;;3.40;3.40;;;;;;;;5172161;28;8998;-72
2022/05/19 04:31:06;;;;;;;;;3.00;3.00;;;;;;;;5186806;28;8886;-69
2022/05/19 04:33:37;;;;;;;;;2.00;2.00;;;;;;;;5189625;28;8801;-72
2022/05/19 04:36:08;;;;;;;;;0.00;0.00;;;;;;;;5206814;28;9798;-71
2022/05/19 04:38:39;;;;;;;;;0.25;0.25;;;;;;;;5205633;28;8881;-70
2022/05/19 04:41:10;;;;;;;;;2.00;2.00;;;;;;;;5208180;28;8801;-71
2022/05/19 04:43:41;;;;;;;;;2.00;2.00;;;;;;;;5190143;28;11378;-71
2022/05/19 04:46:12;;;;;;;;;7.25;7.25;;;;;;;;5184777;28;11132;-72
2022/05/19 04:48:43;;;;;;;;;1.00;1.00;;;;;;;;5191562;28;9386;-72
2022/05/19 04:51:14;;;;;;;;;2.25;2.25;;;;;;;;5206568;28;11533;-74
2022/05/19 04:53:45;;;;;;;;;34.75;34.25;;;;;;;;5206216;28;11468;-73
2022/05/19 04:56:16;;;;;;;;;25.40;25.40;;;;;;;;5210517;28;11533;-72
2022/05/19 04:58:48;;;;;;;;;2.00;2.00;;;;;;;;5194423;28;8809;-72
2022/05/19 05:01:19;;;;;;;;;7.75;7.75;;;;;;;;5227265;28;8783;-71
2022/05/19 05:03:50;;;;;;;;;9.20;9.20;;;;;;;;5210743;28;8880;-73
2022/05/19 05:06:21;;;;;;;;;7.40;7.40;;;;;;;;5212217;28;8805;-73
2022/05/19 05:08:52;;;;;;;;;1.40;1.40;;;;;;;;5207414;28;8923;-72
2022/05/19 05:11:23;;;;;;;;;3.00;2.00;;;;;;;;5173906;28;8801;-71
2022/05/19 05:13:54;;;;;;;;;6.75;6.75;;;;;;;;5189480;28;8889;-71
2022/05/19 05:16:25;;;;;;;;;0.60;0.60;;;;;;;;5172854;28;11388;-71
2022/05/19 05:18:56;;;;;;;;;19.40;19.20;;;;;;;;5173258;28;8797;-72
2022/05/19 05:21:27;;;;;;;;;30.60;29.60;;;;;;;;5190115;28;8823;-72
2022/05/19 05:23:58;;;;;;;;;42.40;39.40;;;;;;;;5187645;28;8807;-72
2022/05/19 05:26:28;;;;;;;;;6.60;6.60;;;;;;;;5185524;28;8795;-72
2022/05/19 05:28:59;;;;;;;;;10.00;10.00;;;;;;;;5152910;28;8802;-71
2022/05/19 05:31:31;;;;;;;;;2.20;2.20;;;;;;;;5186655;28;11417;-73
2022/05/19 05:34:02;;;;;;;;;0.00;0.00;;;;;;;;5169271;28;8865;-72
2022/05/19 05:36:34;;;;;;;;;0.00;0.00;;;;;;;;5152793;28;8831;-72
2022/05/19 05:39:05;;;;;;;;;2.00;2.00;;;;;;;;5188651;28;8813;-72
2022/05/19 05:41:36;;;;;;;;;0.60;0.60;;;;;;;;5171180;28;9562;-72
2022/05/19 05:44:07;;;;;;;;;2.75;2.75;;;;;;;;5188772;28;8797;-71
2022/05/19 05:46:38;;;;;;;;;91.80;79.20;;;;;;;;5206538;28;11534;-71
2022/05/19 05:49:27;;;;;;;;;3.00;3.00;;;;;;;;5168592;28;8816;-72
2022/05/19 05:51:58;;;;;;;;;118.00;113.50;;;;;;;;5202308;28;8794;-74
2022/05/19 05:54:29;;;;;;;;;1.00;1.00;;;;;;;;5160568;28;11581;-74
2022/05/19 05:57:01;;;;;;;;;4.00;4.00;;;;;;;;5173313;28;8823;-73
2022/05/19 05:59:32;;;;;;;;;4.60;4.60;;;;;;;;5227499;28;8767;-74
2022/05/19 06:02:03;;;;;;;;;3.40;3.40;;;;;;;;5200946;28;8927;-72
2022/05/19 06:04:36;;;;;;;;;67.20;55.20;;;;;;;;5188937;28;8781;-72
2022/05/19 06:07:07;;;;;;;;;4.40;4.40;;;;;;;;5188802;28;8825;-72
2022/05/19 06:09:39;;;;;;;;;2.50;2.50;;;;;;;;5205050;28;8797;-73
2022/05/19 06:12:10;;;;;;;;;0.00;0.00;;;;;;;;5162045;28;10771;-73
2022/05/19 06:14:41;;;;;;;;;3.00;3.00;;;;;;;;5177849;28;9489;-74
2022/05/19 06:17:12;;;;;;;;;2.00;2.00;;;;;;;;5184657;28;8967;-75
2022/05/19 06:19:43;;;;;;;;;0.00;0.00;;;;;;;;5189946;28;8811;-74
2022/05/19 06:22:14;;;;;;;;;14.40;13.80;;;;;;;;5168699;28;8783;-74
2022/05/19 06:24:46;;;;;;;;;1.80;1.80;;;;;;;;5167716;28;8799;-74
2022/05/19 06:27:22;;;;;;;;;15.80;15.80;;;;;;;;5200421;28;8819;-74
2022/05/19 06:29:53;;;;;;;;;25.60;25.60;;;;;;;;5168083;28;8926;-74
2022/05/19 06:32:24;;;;;;;;;9.75;9.75;;;;;;;;5167708;28;8945;-74
2022/05/19 06:34:55;;;;;;;;;4.40;3.80;;;;;;;;5185394;28;11439;-74
2022/05/19 06:37:26;;;;;;;;;4.20;4.20;;;;;;;;5164071;28;8937;-74
2022/05/19 06:40:16;;;;;;;;;0.60;0.60;;;;;;;;5147777;28;8817;-74
2022/05/19 06:42:48;;;;;;;;;62.60;52.60;;;;;;;;5148104;28;8795;-74
2022/05/19 06:45:20;;;;;;;;;2.20;2.20;;;;;;;;5147842;28;8779;-74
2022/05/19 06:47:52;;;;;;;;;2.60;2.60;;;;;;;;5147605;28;8814;-74
2022/05/19 06:50:42;;;;;;;;;7.00;6.60;;;;;;;;5150171;28;8791;-74
2022/05/19 06:53:13;;;;;;;;;22.20;20.00;;;;;;;;5151325;28;8826;-74
2022/05/19 06:56:03;;;;;;;;;11.40;11.40;;;;;;;;5155364;28;8791;-74
2022/05/19 06:58:34;;;;;;;;;22.80;22.80;;;;;;;;5169959;28;8802;-73
2022/05/19 07:01:05;;;;;;;;;7.80;7.80;;;;;;;;5171818;28;8803;-74
2022/05/19 07:03:36;;;;;;;;;32.60;31.40;;;;;;;;5153861;28;8807;-73
2022/05/19 07:06:08;;;;;;;;;2.80;2.80;;;;;;;;5163795;28;8794;-74
2022/05/19 07:08:40;;;;;;;;;5.80;5.80;;;;;;;;5163793;28;8849;-74
2022/05/19 07:11:24;;;;;;;;;13.00;13.00;;;;;;;;5179759;28;8806;-75
2022/05/19 07:14:05;;;;;;;;;0.00;0.00;;;;;;;;5147358;28;8778;-75
2022/05/19 07:16:37;;;;;;;;;1.40;1.40;;;;;;;;5163739;28;8779;-75
2022/05/19 07:22:19;;;;;;;;;7.00;7.00;;;;;;;;5147392;28;8797;-74
2022/05/19 07:24:51;;;;;;;;;2.20;2.20;;;;;;;;5147211;28;8785;-75
2022/05/19 07:27:22;;;;;;;;;15.20;14.80;;;;;;;;5147375;28;9571;-75
2022/05/19 07:29:53;;;;;;;;;53.00;38.80;;;;;;;;5147052;28;8775;-74
2022/05/19 07:32:25;;;;;;;;;8.40;7.60;;;;;;;;5147063;28;8795;-75
2022/05/19 07:34:56;;;;;;;;;2.00;2.00;;;;;;;;5163489;28;8783;-74
2022/05/19 07:37:29;;;;;;;;;1.00;1.00;;;;;;;;5162564;28;8824;-74
2022/05/19 07:40:00;;;;;;;;;4.00;4.00;;;;;;;;5163002;28;8763;-75
2022/05/19 07:42:31;;;;;;;;;3.00;3.00;;;;;;;;5179302;28;8873;-75
2022/05/19 07:45:03;;;;;;;;;2.20;2.20;;;;;;;;5162968;28;8775;-75
2022/05/19 07:47:35;;;;;;;;;2.40;2.40;;;;;;;;5146670;28;8865;-75
2022/05/19 07:50:06;;;;;;;;;1.80;1.80;;;;;;;;5130873;28;8787;-74
2022/05/19 07:52:38;;;;;;;;;25.40;24.80;;;;;;;;5147249;28;8814;-74
2022/05/19 07:55:28;;;;;;;;;4.20;4.20;;;;;;;;5147141;28;8794;-75
2022/05/19 07:58:00;;;;;;;;;7.20;7.20;;;;;;;;5163650;28;8864;-75
2022/05/19 08:00:31;;;;;;;;;19.20;19.20;;;;;;;;5163037;28;8856;-75
2022/05/19 08:03:03;;;;;;;;;9.00;9.00;;;;;;;;5146579;28;8799;-74
2022/05/19 08:05:35;;;;;;;;;14.20;14.20;;;;;;;;5130529;28;8803;-74
2022/05/19 08:08:06;;;;;;;;;1.00;1.00;;;;;;;;5130298;28;8822;-74
2022/05/19 08:10:37;;;;;;;;;1.20;1.20;;;;;;;;5146997;28;8787;-75
2022/05/19 08:15:57;;;;;;;;;34.80;33.60;;;;;;;;5162825;28;8985;-74
2022/05/19 08:18:28;;;;;;;;;35.25;34.25;;;;;;;;5146501;28;8917;-74
2022/05/19 08:21:02;;;;;;;;;2.75;2.75;;;;;;;;5162448;28;11467;-74
2022/05/19 08:23:37;;;;;;;;;0.00;0.00;;;;;;;;5178935;28;10492;-74
2022/05/19 08:26:09;;;;;;;;;0.00;0.00;;;;;;;;5146848;28;8799;-75
2022/05/19 08:28:42;;;;;;;;;0.00;0.00;;;;;;;;5146563;28;8897;-75
2022/05/19 08:31:23;;;;;;;;;0.00;0.00;;;;;;;;5146648;28;8783;-75
2022/05/19 08:33:56;;;;;;;;;6.80;6.80;;;;;;;;5130627;28;8794;-75
2022/05/19 08:36:27;;;;;;;;;0.00;0.00;;;;;;;;5178753;28;8962;-74
2022/05/19 08:38:58;;;;;;;;;1.00;1.00;;;;;;;;5146163;28;8813;-74
2022/05/19 08:41:35;;;;;;;;;0.00;0.00;;;;;;;;5130206;28;8799;-75
2022/05/19 08:44:12;;;;;;;;;51.00;44.00;;;;;;;;5162418;28;8787;-74
2022/05/19 08:47:02;;;;;;;;;3.60;3.60;;;;;;;;5162515;28;8904;-74
2022/05/19 08:49:46;;;;;;;;;9.80;9.80;;;;;;;;5132162;28;8779;-75
2022/05/19 08:52:40;;;;;;;;;0.00;0.00;;;;;;;;5165781;28;8787;-74
2022/05/19 08:55:14;;;;;;;;;33.40;32.60;;;;;;;;5149784;28;8815;-74
2022/05/19 08:58:22;;;;;;;;;0.00;0.00;;;;;;;;5149908;28;8893;-75
2022/05/19 09:00:58;;;;;;;;;3.20;3.20;;;;;;;;5150088;28;8767;-74
2022/05/19 09:03:35;;;;;;;;;0.00;0.00;;;;;;;;5166120;28;8771;-72
2022/05/19 09:06:20;;;;;;;;;0.00;0.00;;;;;;;;5149791;28;9504;-72
2022/05/19 09:09:00;;;;;;;;;0.00;0.00;;;;;;;;5149989;28;8801;-72
2022/05/19 09:11:44;;;;;;;;;0.00;0.00;;;;;;;;5166098;28;9574;-72
2022/05/19 09:14:15;;;;;;;;;0.80;0.80;;;;;;;;5149723;28;9498;-72
2022/05/19 09:16:47;;;;;;;;;0.00;0.00;;;;;;;;5182023;28;8771;-72
2022/05/19 09:19:18;;;;;;;;;0.00;0.00;;;;;;;;5166135;28;8779;-72
2022/05/19 09:21:56;;;;;;;;;0.00;0.00;;;;;;;;5166165;28;9569;-72
2022/05/19 09:24:27;;;;;;;;;0.80;0.80;;;;;;;;5149498;28;8787;-72
2022/05/19 09:26:59;;;;;;;;;1.25;1.25;;;;;;;;5149088;28;8810;-72
2022/05/19 09:29:53;;;;;;;;;3.20;3.20;;;;;;;;5149708;28;8921;-73
2022/05/19 09:32:33;;;;;;;;;1.50;1.50;;;;;;;;5149289;28;8807;-73
2022/05/19 09:35:05;;;;;;;;;1.20;1.20;;;;;;;;5149092;28;8783;-72
2022/05/19 09:37:43;;;;;;;;;0.00;0.00;;;;;;;;5180274;28;9586;-73
2022/05/19 09:40:23;;;;;;;;;0.00;0.00;;;;;;;;5169316;28;9453;-73
2022/05/19 09:42:59;;;;;;;;;0.00;0.00;;;;;;;;5169157;28;9528;-72
2022/05/19 09:45:50;;;;;;;;;10.60;10.60;;;;;;;;5201744;28;9512;-73
2022/05/19 09:48:46;;;;;;;;;2.50;2.50;;;;;;;;5169005;28;9018;-72
2022/05/19 09:51:19;;;;;;;;;0.25;0.25;;;;;;;;5202196;28;8760;-72
2022/05/19 09:53:54;;;;;;;;;4.00;4.00;;;;;;;;5169095;28;8821;-73
2022/05/19 09:56:38;;;;;;;;;27.60;26.60;;;;;;;;5185073;28;8870;-72
2022/05/19 09:59:29;;;;;;;;;15.80;15.80;;;;;;;;5201333;28;8800;-72
2022/05/19 10:02:15;;;;;;;;;3.80;3.80;;;;;;;;5149071;28;9616;-72
2022/05/19 10:04:54;;;;;;;;;0.00;0.00;;;;;;;;5168820;28;8796;-72
2022/05/19 10:07:35;;;;;;;;;0.50;0.50;;;;;;;;5201837;28;8809;-72
2022/05/19 10:10:17;;;;;;;;;0.00;0.00;;;;;;;;5168968;28;8799;-72
2022/05/19 10:13:08;;;;;;;;;9.60;9.40;;;;;;;;5185931;28;8805;-73
2022/05/19 10:15:48;;;;;;;;;22.80;22.80;;;;;;;;5186404;28;8874;-72
2022/05/19 10:18:37;;;;;;;;;7.80;7.40;;;;;;;;5201430;28;9557;-72
2022/05/19 10:21:17;;;;;;;;;10.40;10.40;;;;;;;;5184621;28;8788;-73
2022/05/19 10:23:58;;;;;;;;;0.00;0.00;;;;;;;;5152342;28;8785;-72
2022/05/19 10:31:02;;;;;;;;;1.00;1.00;;;;;;;;5168258;28;8807;-72
2022/05/19 10:33:01;;;;;;;;;3.00;3.00;;;;;;;;5152047;28;8809;-72
2022/05/19 10:35:43;;;;;;;;;72.80;58.20;;;;;;;;5184596;28;8789;-71
2022/05/19 10:38:42;;;;;;;;;3.25;3.25;;;;;;;;5185360;28;8871;-70
2022/05/19 10:41:35;;;;;;;;;7.60;7.60;;;;;;;;5168106;28;8789;-71
2022/05/19 10:44:16;;;;;;;;;0.00;0.00;;;;;;;;5166378;28;8817;-71
2022/05/19 10:47:30;;;;;;;;;0.00;0.00;;;;;;;;5182583;28;8894;-71
2022/05/19 10:50:08;;;;;;;;;0.00;0.00;;;;;;;;5185861;28;8819;-71
2022/05/19 10:52:58;;;;;;;;;22.20;22.20;;;;;;;;5167541;28;8900;-71
2022/05/19 10:55:38;;;;;;;;;0.00;0.00;;;;;;;;5167731;28;8773;-71
2022/05/19 10:58:23;;;;;;;;;1.00;1.00;;;;;;;;5200339;28;9603;-71
2022/05/19 11:01:07;;;;;;;;;0.00;0.00;;;;;;;;5200430;28;8843;-71
2022/05/19 11:03:46;;;;;;;;;0.00;0.00;;;;;;;;5200967;28;8851;-71
2022/05/19 11:06:36;;;;;;;;;0.00;0.00;;;;;;;;5197788;28;8851;-71
2022/05/19 11:09:35;;;;;;;;;0.00;0.00;;;;;;;;5181583;28;8783;-71
2022/05/19 11:12:06;;;;;;;;;1.00;1.00;;;;;;;;5184610;28;8781;-71
2022/05/19 11:14:43;;;;;;;;;3.00;3.00;;;;;;;;5183841;28;9669;-72
2022/05/19 11:17:25;;;;;;;;;2.00;2.00;;;;;;;;5167279;28;9512;-72
2022/05/19 11:20:00;;;;;;;;;0.00;0.00;;;;;;;;5167729;28;8758;-72
2022/05/19 11:22:35;;;;;;;;;1.00;1.00;;;;;;;;5167524;28;8868;-72
2022/05/19 11:28:02;;;;;;;;;1.25;1.25;;;;;;;;5167074;28;8800;-72
2022/05/19 11:30:59;;;;;;;;;0.00;0.00;;;;;;;;5167528;28;8797;-72
2022/05/19 11:33:34;;;;;;;;;0.00;0.00;;;;;;;;5167539;28;8896;-71
2022/05/19 11:36:27;;;;;;;;;1.00;1.00;;;;;;;;5183205;28;8930;-72
2022/05/19 11:39:13;;;;;;;;;1.00;1.00;;;;;;;;5183467;28;8780;-72
2022/05/19 11:41:45;;;;;;;;;1.50;1.50;;;;;;;;5146839;28;8791;-72
2022/05/19 11:44:29;;;;;;;;;0.50;0.50;;;;;;;;5164362;28;8787;-72
2022/05/19 11:56:49;;;;;;;;;0.50;0.50;;;;;;;;5184736;28;8933;-71
2022/05/19 11:59:21;;;;;;;;;0.00;0.00;;;;;;;;5184420;28;8815;-72
2022/05/19 12:01:52;;;;;;;;;0.00;0.00;;;;;;;;5184289;28;8834;-73
2022/05/19 12:04:28;;;;;;;;;0.00;0.00;;;;;;;;5166776;28;8811;-71
2022/05/19 12:07:15;;;;;;;;;8.80;8.80;;;;;;;;5166764;28;8818;-72
2022/05/19 12:09:53;;;;;;;;;1.00;1.00;;;;;;;;5199472;28;9549;-72
2022/05/19 12:12:34;;;;;;;;;1.00;1.00;;;;;;;;5167596;28;8803;-73
2022/05/19 12:15:17;;;;;;;;;64.20;51.40;;;;;;;;5183070;28;8809;-73
2022/05/19 12:17:56;;;;;;;;;5.20;5.20;;;;;;;;5166660;28;8807;-73
2022/05/19 12:20:33;;;;;;;;;1.50;1.50;;;;;;;;5167003;28;8898;-72
2022/05/19 12:23:18;;;;;;;;;3.00;3.00;;;;;;;;5168570;28;8798;-71
2022/05/19 12:26:16;;;;;;;;;0.00;0.00;;;;;;;;5188068;28;8811;-73
2022/05/19 12:28:48;;;;;;;;;0.00;0.00;;;;;;;;5188257;28;8817;-73
2022/05/19 12:34:23;;;;;;;;;1.75;1.75;;;;;;;;5186607;28;8795;-72
2022/05/19 12:37:13;;;;;;;;;0.00;0.00;;;;;;;;5186437;28;8850;-74
2022/05/19 12:39:48;;;;;;;;;0.00;0.00;;;;;;;;5170389;28;8784;-72
2022/05/19 12:42:32;;;;;;;;;1.00;1.00;;;;;;;;5170412;28;8803;-72
2022/05/19 12:45:20;;;;;;;;;0.00;0.00;;;;;;;;5187787;28;8818;-71
2022/05/19 12:48:21;;;;;;;;;0.00;0.00;;;;;;;;5170388;28;8826;-71
2022/05/19 12:51:14;;;;;;;;;0.00;0.00;;;;;;;;5170516;28;8827;-73
2022/05/19 12:53:51;;;;;;;;;2.60;2.60;;;;;;;;5169968;28;8791;-72
2022/05/19 12:56:40;;;;;;;;;3.00;3.00;;;;;;;;5187659;28;8795;-71
2022/05/19 12:59:31;;;;;;;;;8.75;8.75;;;;;;;;5202459;28;8771;-72
2022/05/19 13:02:20;;;;;;;;;1.00;1.00;;;;;;;;5187588;28;11437;-71
2022/05/19 13:04:57;;;;;;;;;0.00;0.00;;;;;;;;5202970;28;8882;-72
2022/05/19 13:07:28;;;;;;;;;0.00;0.00;;;;;;;;5169902;28;8811;-71
2022/05/19 13:10:06;;;;;;;;;0.00;0.00;;;;;;;;5202399;28;8803;-72
2022/05/19 13:12:55;;;;;;;;;1.00;1.00;;;;;;;;5185972;28;12204;-71
2022/05/19 13:15:28;;;;;;;;;0.50;0.50;;;;;;;;5202320;28;8763;-72
2022/05/19 13:18:03;;;;;;;;;3.00;3.00;;;;;;;;5185696;28;8792;-72
2022/05/19 13:20:38;;;;;;;;;4.50;4.50;;;;;;;;5185743;28;8803;-72
2022/05/19 13:23:28;;;;;;;;;2.75;2.75;;;;;;;;5202195;28;8814;-71
2022/05/19 13:26:06;;;;;;;;;5.00;5.00;;;;;;;;5185596;28;8783;-72
2022/05/19 13:31:28;;;;;;;;;1.50;1.50;;;;;;;;5202209;28;8795;-72
2022/05/19 13:33:59;;;;;;;;;1.50;1.50;;;;;;;;5184931;28;8790;-72
2022/05/19 13:36:32;;;;;;;;;0.00;0.00;;;;;;;;5169268;28;8950;-72
2022/05/19 13:39:11;;;;;;;;;0.00;0.00;;;;;;;;5202045;28;9511;-72
2022/05/19 13:41:46;;;;;;;;;2.00;2.00;;;;;;;;5185954;28;8843;-72
2022/05/19 13:44:27;;;;;;;;;0.00;0.00;;;;;;;;5185834;28;8815;-73
2022/05/19 13:46:58;;;;;;;;;0.00;0.00;;;;;;;;5185113;28;8821;-72
2022/05/19 13:49:29;;;;;;;;;8.25;8.25;;;;;;;;5174335;28;8807;-73
2022/05/19 13:52:06;;;;;;;;;2.20;2.20;;;;;;;;5143541;28;11438;-73
2022/05/19 13:54:41;;;;;;;;;0.00;0.00;;;;;;;;5167157;28;9610;-74
2022/05/19 13:57:21;;;;;;;;;3.50;3.50;;;;;;;;5166125;28;8846;-73
2022/05/19 13:59:59;;;;;;;;;2.25;2.25;;;;;;;;5177014;28;8851;-73
2022/05/19 14:02:32;;;;;;;;;0.00;0.00;;;;;;;;5187732;28;9600;-73
2022/05/19 14:05:06;;;;;;;;;0.00;0.00;;;;;;;;5184277;28;8861;-73
2022/05/19 14:07:38;;;;;;;;;0.00;0.00;;;;;;;;5195619;28;8849;-72
2022/05/19 14:10:11;;;;;;;;;0.00;0.00;;;;;;;;5167814;28;8861;-72
2022/05/19 14:12:49;;;;;;;;;0.00;0.00;;;;;;;;5182805;28;8957;-72
2022/05/19 14:15:26;;;;;;;;;0.75;0.75;;;;;;;;5150523;28;8799;-72
2022/05/19 14:18:20;;;;;;;;;2.00;2.00;;;;;;;;5183083;28;8921;-72
2022/05/19 14:21:01;;;;;;;;;2.00;2.00;;;;;;;;5167491;28;8861;-72
2022/05/19 14:23:49;;;;;;;;;0.00;0.00;;;;;;;;5183196;28;8850;-71
2022/05/19 14:26:26;;;;;;;;;0.00;0.00;;;;;;;;5182798;28;9518;-72
2022/05/19 14:29:00;;;;;;;;;0.00;0.00;;;;;;;;5166222;28;8833;-72
2022/05/19 14:31:48;;;;;;;;;0.00;0.00;;;;;;;;5171714;28;8811;-72
2022/05/19 14:34:27;;;;;;;;;0.00;0.00;;;;;;;;5183201;28;8804;-70
2022/05/19 14:36:58;;;;;;;;;0.00;0.00;;;;;;;;5181926;28;9541;-71
2022/05/19 14:39:31;;;;;;;;;0.00;0.00;;;;;;;;5186828;28;8840;-72
2022/05/19 14:44:54;;;;;;;;;0.75;0.75;;;;;;;;5179479;28;8858;-72
2022/05/19 14:47:33;;;;;;;;;0.00;0.00;;;;;;;;5214935;28;8830;-70
2022/05/19 14:50:24;;;;;;;;;0.00;0.00;;;;;;;;5187619;28;8943;-70
2022/05/19 14:52:56;;;;;;;;;0.00;0.00;;;;;;;;5183991;28;8938;-71
2022/05/19 14:55:34;;;;;;;;;0.00;0.00;;;;;;;;5185553;28;8783;-71
2022/05/19 14:58:12;;;;;;;;;0.00;0.00;;;;;;;;5185123;28;8881;-70
2022/05/19 15:00:43;;;;;;;;;0.00;0.00;;;;;;;;5185407;28;8774;-71
2022/05/19 15:03:15;;;;;;;;;0.00;0.00;;;;;;;;5191346;28;8793;-71
2022/05/19 15:05:46;;;;;;;;;0.00;0.00;;;;;;;;5195506;28;11478;-71
2022/05/19 15:08:17;;;;;;;;;2.25;2.25;;;;;;;;5191731;28;8794;-69
2022/05/19 15:10:53;;;;;;;;;0.00;0.00;;;;;;;;5183517;28;8787;-72
2022/05/19 15:13:24;;;;;;;;;0.00;0.00;;;;;;;;5197618;28;8817;-72
2022/05/19 15:15:58;;;;;;;;;0.00;0.00;;;;;;;;5194433;28;8761;-71
2022/05/19 15:18:47;;;;;;;;;1.80;1.80;;;;;;;;5187947;28;8803;-70
2022/05/19 15:21:19;;;;;;;;;10.80;10.80;;;;;;;;5167379;28;8819;-69
2022/05/19 15:23:50;;;;;;;;;5.80;5.80;;;;;;;;5199279;28;8816;-73
2022/05/19 15:26:23;;;;;;;;;10.20;10.20;;;;;;;;5200237;28;9569;-71
2022/05/19 15:29:13;;;;;;;;;10.40;10.40;;;;;;;;5192003;28;8816;-72
2022/05/19 15:31:44;;;;;;;;;14.40;14.20;;;;;;;;5191997;28;8827;-71
2022/05/19 15:34:15;;;;;;;;;12.00;12.00;;;;;;;;5165653;28;8798;-72
2022/05/19 15:36:46;;;;;;;;;16.20;15.60;;;;;;;;5197596;28;8807;-73
2022/05/19 15:39:19;;;;;;;;;10.00;9.75;;;;;;;;5185463;28;8808;-73
2022/05/19 15:41:50;;;;;;;;;12.40;12.40;;;;;;;;5190975;28;8823;-71
2022/05/19 15:44:22;;;;;;;;;14.40;14.40;;;;;;;;5224677;28;8797;-74
2022/05/19 15:46:52;;;;;;;;;16.00;16.00;;;;;;;;5202905;28;8829;-72
2022/05/19 15:49:25;;;;;;;;;14.60;14.60;;;;;;;;5201361;28;8878;-72
2022/05/19 15:51:56;;;;;;;;;23.20;23.20;;;;;;;;5209431;28;8788;-70
2022/05/19 15:54:27;;;;;;;;;22.00;21.75;;;;;;;;5225681;28;8810;-70
2022/05/19 15:56:58;;;;;;;;;19.60;19.60;;;;;;;;5178532;28;8824;-72
2022/05/19 15:59:29;;;;;;;;;21.75;21.50;;;;;;;;5193501;28;8831;-71
2022/05/19 16:02:03;;;;;;;;;16.50;15.50;;;;;;;;5217311;28;11507;-72
2022/05/19 16:04:33;;;;;;;;;21.40;21.20;;;;;;;;5198383;28;8781;-71
2022/05/19 16:07:04;;;;;;;;;27.75;27.75;;;;;;;;5232439;28;8811;-71
2022/05/19 16:09:35;;;;;;;;;18.50;17.75;;;;;;;;5234641;28;8783;-72
2022/05/19 16:12:07;;;;;;;;;14.50;14.50;;;;;;;;5213163;28;8799;-70
2022/05/19 16:14:56;;;;;;;;;16.20;16.00;;;;;;;;5230249;28;11461;-69
2022/05/19 16:17:27;;;;;;;;;18.00;17.20;;;;;;;;5229645;28;8830;-72
2022/05/19 16:19:59;;;;;;;;;60.40;49.20;;;;;;;;5195446;28;8810;-70